Time;durP1;ratioP1;P1;durP2;ratioP2;P2;SDS_P1;SDS_P2;PMS_P1;PMS_P2;Temp;Humidity;BMP_temperature;BMP_pressure;BME280_temperature;BME280_humidity;BME280_pressure;Samples;Min_cycle;Max_cycle;Signal;HPM_P1;HPM_P2
2022/11/11 00:00:48;;;;;;;;;10.25;8.50;;;;;13.29;59.46;102370.97;5070794;27;45670;-43
2022/11/11 00:03:14;;;;;;;;;9.50;7.00;;;;;13.30;59.56;102364.00;5075969;28;45624;-45
2022/11/11 00:05:40;;;;;;;;;15.25;10.25;;;;;13.30;59.49;102364.84;5083989;27;45458;-42
2022/11/11 00:08:05;;;;;;;;;14.50;12.00;;;;;13.32;59.39;102361.38;5080078;28;64395;-43
2022/11/11 00:10:30;;;;;;;;;11.25;10.00;;;;;13.32;59.85;102370.13;5068297;27;73284;-47
2022/11/11 00:13:04;;;;;;;;;11.50;9.50;;;;;13.33;59.53;102368.38;5076199;27;46389;-45
2022/11/11 00:15:30;;;;;;;;;11.75;8.50;;;;;13.29;59.56;102365.72;5071738;28;46054;-43
2022/11/11 00:26:12;;;;;;;;;13.50;11.75;;;;;13.22;60.19;102353.56;5075388;27;46113;-43
2022/11/11 00:28:37;;;;;;;;;13.25;10.25;;;;;13.21;59.75;102359.72;5074230;28;45418;-44
2022/11/11 00:31:04;;;;;;;;;15.75;11.25;;;;;13.20;59.85;102357.97;5076137;27;45461;-42
2022/11/11 00:33:30;;;;;;;;;7.00;7.00;;;;;13.18;60.31;102356.25;5078923;28;46424;-43
2022/11/11 00:35:56;;;;;;;;;12.75;9.25;;;;;13.18;59.97;102357.13;5075201;28;45449;-43
2022/11/11 00:41:05;;;;;;;;;8.75;8.75;;;;;13.13;60.13;102366.81;5067863;28;45395;-42
2022/11/11 00:43:30;;;;;;;;;11.50;8.50;;;;;13.13;59.85;102374.69;5076959;27;46034;-45
2022/11/11 00:50:57;;;;;;;;;15.00;10.75;;;;;13.14;59.89;102380.81;5069600;27;45419;-44
2022/11/11 00:51:26;;;;;;;;;13.50;10.50;;;;;13.16;60.07;102387.81;5067145;28;45505;-43
2022/11/11 00:53:51;;;;;;;;;12.25;11.75;;;;;13.18;60.13;102398.31;5058708;28;45762;-46
2022/11/11 00:56:16;;;;;;;;;6.25;5.75;;;;;13.17;60.30;102402.69;5073937;27;64416;-42
2022/11/11 00:58:41;;;;;;;;;11.00;11.00;;;;;13.19;60.07;102400.03;5075224;27;54947;-43
2022/11/11 01:01:07;;;;;;;;;12.00;9.00;;;;;13.20;59.78;102393.91;5079027;27;59735;-44
2022/11/11 01:03:32;;;;;;;;;11.75;10.00;;;;;13.19;60.40;102393.03;5058296;28;48001;-44
2022/11/11 01:06:02;;;;;;;;;15.25;9.50;;;;;13.18;60.04;102390.44;5072652;28;45639;-43
2022/11/11 01:08:27;;;;;;;;;11.00;9.50;;;;;13.16;60.37;102385.19;5076910;27;45599;-43
2022/11/11 01:10:52;;;;;;;;;8.50;8.00;;;;;13.17;60.21;102386.03;5071945;27;66206;-43
2022/11/11 01:13:22;;;;;;;;;12.75;8.50;;;;;13.17;60.27;102384.28;5074924;27;62883;-43
2022/11/11 01:15:50;;;;;;;;;10.00;9.00;;;;;13.15;60.18;102375.53;5067870;27;45914;-42
2022/11/11 01:18:18;;;;;;;;;13.00;10.00;;;;;13.15;59.85;102378.16;5063295;28;45402;-44
2022/11/11 01:20:43;;;;;;;;;9.00;8.00;;;;;13.15;60.30;102379.94;5072981;27;45306;-43
2022/11/11 01:23:10;;;;;;;;;10.75;10.00;;;;;13.15;60.04;102385.19;5072591;27;45453;-43
2022/11/11 01:25:37;;;;;;;;;10.25;9.00;;;;;13.13;59.97;102376.47;5105901;27;45766;-43
2022/11/11 01:28:03;;;;;;;;;10.00;9.00;;;;;13.11;60.14;102372.06;5064081;28;45511;-43
2022/11/11 01:30:30;;;;;;;;;9.75;9.50;;;;;13.11;59.95;102376.47;5074116;27;45448;-44
2022/11/11 01:32:55;;;;;;;;;15.75;12.00;;;;;13.09;59.96;102376.47;5068500;27;45382;-45
2022/11/11 01:35:20;;;;;;;;;16.00;11.75;;;;;13.07;59.68;102378.25;5080309;28;68601;-46
2022/11/11 01:37:46;;;;;;;;;10.00;8.25;;;;;13.04;60.01;102383.53;5080862;27;61078;-44
2022/11/11 01:40:11;;;;;;;;;12.00;9.50;;;;;13.05;59.95;102381.78;5079770;27;69965;-42
2022/11/11 01:42:51;;;;;;;;;9.25;8.25;;;;;13.07;59.89;102385.28;5082592;27;70881;-48
2022/11/11 01:45:58;;;;;;;;;12.25;12.00;;;;;13.06;59.96;102384.41;5072678;28;45311;-46
2022/11/11 01:51:18;;;;;;;;;10.00;8.75;;;;;13.08;59.95;102387.91;5073169;28;45435;-49
2022/11/11 01:53:45;;;;;;;;;15.25;11.75;;;;;13.13;60.25;102397.50;5081761;27;46617;-44
2022/11/11 01:56:11;;;;;;;;;15.25;10.00;;;;;13.12;60.19;102388.75;5077220;27;45359;-48
2022/11/11 01:58:37;;;;;;;;;16.00;13.25;;;;;13.14;59.82;102401.84;5075622;28;59412;-45
2022/11/11 02:01:02;;;;;;;;;11.75;10.00;;;;;13.12;59.80;102399.25;5076893;27;72415;-43
2022/11/11 02:03:30;;;;;;;;;13.50;9.50;;;;;13.14;60.04;102393.94;5078293;28;57697;-46
2022/11/11 02:05:56;;;;;;;;;12.25;11.50;;;;;13.15;60.29;102400.97;5075045;28;45746;-43
2022/11/11 02:08:32;;;;;;;;;13.50;12.00;;;;;13.17;59.62;102400.03;5079256;27;45674;-45
2022/11/11 02:11:15;;;;;;;;;12.00;9.75;;;;;13.11;59.68;102395.72;5077264;28;45325;-46
2022/11/11 02:16:26;;;;;;;;;14.75;10.75;;;;;13.08;59.90;102385.28;5079069;27;45469;-46
2022/11/11 02:18:52;;;;;;;;;9.75;9.50;;;;;13.08;59.76;102385.28;5079608;28;45405;-48
2022/11/11 02:21:41;;;;;;;;;16.00;12.00;;;;;13.04;59.49;102383.53;5073887;27;45604;-46
2022/11/11 02:24:09;;;;;;;;;16.25;11.25;;;;;13.00;59.93;102381.84;5091777;27;45474;-44
2022/11/11 02:26:36;;;;;;;;;11.25;9.00;;;;;12.98;60.04;102380.09;5074095;27;45347;-46
2022/11/11 02:29:06;;;;;;;;;11.00;10.00;;;;;12.98;60.06;102385.38;5076426;27;65246;-47
2022/11/11 02:31:32;;;;;;;;;14.75;11.00;;;;;13.01;59.89;102385.34;5072981;28;45358;-43
2022/11/11 02:33:57;;;;;;;;;14.50;10.25;;;;;13.01;60.17;102380.94;5082271;27;45422;-44
2022/11/11 02:36:23;;;;;;;;;16.75;12.00;;;;;13.03;60.01;102378.31;5074468;28;45282;-46
2022/11/11 02:38:48;;;;;;;;;14.00;12.50;;;;;13.05;59.98;102374.78;5078284;27;45452;-43
2022/11/11 02:43:58;;;;;;;;;13.25;12.00;;;;;13.07;59.84;102377.41;5078993;27;45415;-44
2022/11/11 02:46:23;;;;;;;;;11.75;11.00;;;;;13.08;59.93;102374.75;5068173;28;73202;-45
2022/11/11 02:48:48;;;;;;;;;13.75;10.25;;;;;13.07;59.74;102370.38;5076090;27;60242;-49
2022/11/11 02:51:13;;;;;;;;;13.50;11.00;;;;;13.07;60.12;102377.41;5076450;27;69491;-43
2022/11/11 02:53:39;;;;;;;;;11.50;9.00;;;;;12.99;60.12;102379.22;5075696;28;46119;-48
2022/11/11 02:56:04;;;;;;;;;10.00;9.50;;;;;12.94;59.73;102379.28;5081930;27;45260;-48
2022/11/11 02:58:30;;;;;;;;;9.25;8.50;;;;;12.93;60.14;102374.06;5079006;27;45429;-48
2022/11/11 03:00:55;;;;;;;;;11.00;9.75;;;;;12.93;60.07;102382.81;5077304;28;45386;-47
2022/11/11 03:03:20;;;;;;;;;12.50;10.75;;;;;12.96;59.81;102379.25;5085389;27;72857;-43
2022/11/11 03:05:46;;;;;;;;;9.50;9.25;;;;;12.97;59.83;102375.75;5072745;28;72375;-40
2022/11/11 03:08:11;;;;;;;;;11.25;4.75;;;;;12.96;59.86;102374.91;5077326;27;68119;-47
2022/11/11 03:10:36;;;;;;;;;12.50;11.00;;;;;12.94;59.90;102374.00;5078363;27;64727;-44
2022/11/11 03:13:02;;;;;;;;;12.25;11.00;;;;;12.92;59.42;102375.78;5081319;27;46140;-41
2022/11/11 03:15:27;;;;;;;;;12.75;10.50;;;;;12.85;59.67;102377.59;5076769;28;45318;-42
2022/11/11 03:17:52;;;;;;;;;14.50;11.75;;;;;12.84;59.77;102373.25;5076229;27;58855;-43
2022/11/11 03:23:13;;;;;;;;;13.00;9.00;;;;;12.83;60.29;102368.88;5081319;27;45357;-43
2022/11/11 03:25:47;;;;;;;;;11.50;10.00;;;;;12.86;60.15;102365.38;5073483;28;45373;-42
2022/11/11 03:28:19;;;;;;;;;12.00;8.75;;;;;12.87;59.78;102367.09;5080605;28;45440;-43
2022/11/11 03:30:47;;;;;;;;;12.00;9.25;;;;;12.85;59.69;102372.34;5081475;27;45449;-46
2022/11/11 03:33:13;;;;;;;;;11.75;11.00;;;;;12.85;59.90;102364.47;5081379;27;46418;-46
2022/11/11 03:35:39;;;;;;;;;9.75;9.00;;;;;12.85;59.86;102371.50;5076686;27;45890;-45
2022/11/11 03:38:15;;;;;;;;;12.00;8.50;;;;;12.83;60.23;102373.28;5074669;27;45291;-46
2022/11/11 03:40:47;;;;;;;;;9.50;8.25;;;;;12.83;59.85;102378.53;5078265;27;45505;-44
2022/11/11 03:43:14;;;;;;;;;11.75;10.00;;;;;12.84;59.87;102375.88;5078213;28;45469;-45
2022/11/11 03:45:39;;;;;;;;;9.50;9.00;;;;;12.84;60.10;102375.03;5074319;27;46245;-44
2022/11/11 03:48:05;;;;;;;;;12.50;9.00;;;;;12.87;59.74;102380.22;5074205;27;45398;-47
2022/11/11 03:50:31;;;;;;;;;11.75;10.75;;;;;12.86;59.86;102382.00;5077860;27;45484;-44
2022/11/11 03:52:56;;;;;;;;;6.50;6.00;;;;;12.89;59.58;102384.59;5074794;28;46204;-45
2022/11/11 03:55:22;;;;;;;;;14.25;11.25;;;;;12.92;59.55;102381.03;5072613;27;73217;-43
2022/11/11 03:57:47;;;;;;;;;9.00;8.25;;;;;12.92;59.34;102378.41;5078678;28;45358;-44
2022/11/11 04:00:19;;;;;;;;;11.25;10.00;;;;;12.89;59.34;102374.09;5071932;28;45323;-43
2022/11/11 04:11:00;;;;;;;;;10.25;8.25;;;;;12.78;59.70;102404.81;5080048;27;45398;-48
2022/11/11 04:16:10;;;;;;;;;11.25;7.75;;;;;12.82;59.96;102409.19;5078763;27;45417;-46
2022/11/11 04:25:47;;;;;;;;;10.75;8.75;;;;;12.81;59.40;102403.94;5072367;27;45685;-45
2022/11/11 04:26:53;;;;;;;;;10.50;9.00;;;;;12.80;59.67;102410.97;5067122;27;45524;-42
2022/11/11 04:29:28;;;;;;;;;12.75;8.00;;;;;12.81;59.95;102394.28;5070505;27;45579;-43
2022/11/11 04:34:48;;;;;;;;;13.00;10.00;;;;;12.83;59.70;102392.53;5074942;28;45589;-43
2022/11/11 04:37:14;;;;;;;;;11.50;9.00;;;;;12.81;59.63;102393.44;5092825;27;45801;-45
2022/11/11 04:42:24;;;;;;;;;14.25;11.00;;;;;12.70;59.81;102402.28;5077517;28;45402;-44
2022/11/11 04:47:33;;;;;;;;;13.25;8.50;;;;;12.64;60.11;102404.09;5066491;28;45857;-42
2022/11/11 04:49:59;;;;;;;;;9.00;8.00;;;;;12.65;59.74;102401.44;5069334;28;45233;-43
2022/11/11 04:52:30;;;;;;;;;10.00;8.00;;;;;12.67;59.80;102398.81;5082105;27;45458;-44
2022/11/11 04:57:46;;;;;;;;;12.00;9.00;;;;;12.71;60.11;102405.78;5078706;27;45806;-43
2022/11/11 05:00:17;;;;;;;;;9.25;8.00;;;;;12.73;59.94;102401.41;5071661;28;46977;-45
2022/11/11 05:05:27;;;;;;;;;9.75;8.50;;;;;12.77;59.81;102389.97;5065876;28;45235;-45
2022/11/11 05:10:37;;;;;;;;;16.50;8.25;;;;;12.77;59.90;102391.72;5072118;28;45399;-42
2022/11/11 05:21:25;;;;;;;;;12.00;10.50;;;;;12.66;60.58;102381.28;5076098;27;45391;-45
2022/11/11 05:26:34;;;;;;;;;11.75;10.00;;;;;12.64;60.41;102376.09;5079098;28;45461;-44
2022/11/11 05:28:59;;;;;;;;;12.25;9.00;;;;;12.66;60.43;102386.53;5075263;28;45402;-44
2022/11/11 05:31:25;;;;;;;;;14.25;10.25;;;;;12.65;60.33;102385.69;5069424;28;45413;-43
2022/11/11 05:33:50;;;;;;;;;14.75;11.50;;;;;12.61;60.13;102386.63;5074644;28;45307;-43
2022/11/11 05:36:16;;;;;;;;;12.50;10.75;;;;;12.54;60.57;102393.66;5080322;27;46002;-44
2022/11/11 05:38:42;;;;;;;;;12.75;11.50;;;;;12.49;60.60;102394.59;5074918;27;45226;-42
2022/11/11 05:41:08;;;;;;;;;12.50;11.00;;;;;12.48;60.80;102393.72;5074946;27;45686;-43
2022/11/11 05:43:33;;;;;;;;;13.75;12.50;;;;;12.46;60.90;102394.59;5069851;27;45414;-43
2022/11/11 05:45:58;;;;;;;;;14.00;12.00;;;;;12.46;60.66;102400.72;5073832;28;61286;-44
2022/11/11 05:48:24;;;;;;;;;13.25;11.00;;;;;12.46;60.65;102394.59;5077792;27;71949;-43
2022/11/11 05:50:49;;;;;;;;;14.75;10.00;;;;;12.45;60.50;102392.88;5071043;27;67883;-44
2022/11/11 05:53:14;;;;;;;;;11.75;11.50;;;;;12.38;60.73;102389.44;5080834;27;72927;-44
2022/11/11 05:55:39;;;;;;;;;12.50;10.00;;;;;12.32;60.34;102387.72;5068510;28;67012;-43
2022/11/11 05:58:05;;;;;;;;;11.00;9.00;;;;;12.28;60.92;102375.50;5072416;28;59601;-43
2022/11/11 06:00:30;;;;;;;;;11.75;9.50;;;;;12.31;60.42;102383.34;5078535;27;65008;-43
2022/11/11 06:03:02;;;;;;;;;7.25;6.00;;;;;12.34;60.62;102390.31;5070632;27;45608;-43
2022/11/11 06:05:28;;;;;;;;;12.75;8.00;;;;;12.36;60.54;102388.56;5076790;27;45911;-43
2022/11/11 06:07:53;;;;;;;;;12.00;10.00;;;;;12.37;60.52;102390.31;5078472;27;67869;-46
2022/11/11 06:10:31;;;;;;;;;10.00;8.25;;;;;12.35;60.55;102403.44;5079803;27;45331;-42
2022/11/11 06:13:08;;;;;;;;;12.50;10.50;;;;;12.37;60.68;102398.19;5079309;27;45315;-42
2022/11/11 06:15:35;;;;;;;;;8.50;5.75;;;;;12.40;60.52;102399.94;5072408;28;46488;-42
2022/11/11 06:18:02;;;;;;;;;8.50;8.25;;;;;12.42;60.57;102400.78;5079239;28;45257;-43
2022/11/11 06:20:27;;;;;;;;;9.75;8.00;;;;;12.43;60.45;102406.03;5081188;27;45457;-43
2022/11/11 06:22:56;;;;;;;;;11.00;8.00;;;;;12.45;60.39;102411.28;5076081;27;45503;-43
2022/11/11 06:28:14;;;;;;;;;8.75;6.75;;;;;12.48;60.05;102409.50;5085366;27;46478;-42
2022/11/11 06:30:40;;;;;;;;;9.50;8.75;;;;;12.49;60.00;102411.22;5082600;27;45375;-42
2022/11/11 06:33:06;;;;;;;;;12.75;11.00;;;;;12.53;60.35;102412.06;5074149;27;63125;-43
2022/11/11 06:35:36;;;;;;;;;9.50;8.00;;;;;12.49;60.33;102416.47;5074044;28;45425;-44
2022/11/11 06:38:03;;;;;;;;;10.75;7.75;;;;;12.38;60.18;102415.69;5077942;27;45996;-44
2022/11/11 06:40:29;;;;;;;;;7.75;6.50;;;;;12.32;60.15;102418.34;5081820;28;45220;-43
2022/11/11 06:42:56;;;;;;;;;9.00;6.00;;;;;12.21;60.42;102418.41;5081336;27;45186;-43
2022/11/11 06:45:22;;;;;;;;;8.75;7.00;;;;;12.09;60.50;102427.25;5082870;27;46284;-47
2022/11/11 06:47:47;;;;;;;;;7.00;5.50;;;;;12.06;60.78;102427.28;5076287;27;45378;-42
2022/11/11 06:50:13;;;;;;;;;7.00;7.00;;;;;12.07;60.79;102429.00;5076879;27;69223;-43
2022/11/11 06:52:38;;;;;;;;;8.75;7.25;;;;;12.07;60.64;102434.25;5081923;27;45417;-43
2022/11/11 06:55:04;;;;;;;;;7.75;7.00;;;;;12.08;61.17;102438.63;5080672;27;45978;-43
2022/11/11 06:57:29;;;;;;;;;11.75;8.00;;;;;12.13;60.91;102446.50;5069190;28;45401;-42
2022/11/11 06:59:54;;;;;;;;;9.25;7.75;;;;;12.15;60.59;102444.72;5083947;27;63722;-43
2022/11/11 07:02:19;;;;;;;;;5.50;5.50;;;;;12.17;60.69;102440.31;5079499;27;62209;-45
2022/11/11 07:04:45;;;;;;;;;9.75;6.00;;;;;12.25;60.88;102448.13;5074931;27;75497;-44
2022/11/11 07:07:10;;;;;;;;;6.75;6.50;;;;;12.26;60.77;102442.88;5073317;27;69992;-45
2022/11/11 07:09:35;;;;;;;;;8.00;6.00;;;;;12.26;60.65;102448.13;5081624;27;45431;-45
2022/11/11 07:12:01;;;;;;;;;6.50;6.00;;;;;12.26;60.69;102450.75;5079767;27;68315;-47
2022/11/11 07:14:26;;;;;;;;;8.25;7.00;;;;;12.28;60.71;102443.75;5080865;27;61439;-48
2022/11/11 07:16:52;;;;;;;;;11.00;6.25;;;;;12.32;60.51;102441.97;5073203;27;45340;-43
2022/11/11 07:19:17;;;;;;;;;9.75;7.00;;;;;12.35;60.45;102439.31;5078972;27;45308;-45
2022/11/11 07:21:42;;;;;;;;;7.25;7.00;;;;;12.36;60.65;102430.59;5077055;28;73540;-45
2022/11/11 07:24:08;;;;;;;;;10.50;7.50;;;;;12.38;60.33;102428.81;5071460;27;55686;-46
2022/11/11 07:26:33;;;;;;;;;9.00;7.50;;;;;12.34;60.58;102432.31;5062967;28;46443;-45
2022/11/11 07:28:58;;;;;;;;;9.50;8.50;;;;;12.24;60.85;102428.91;5077109;27;68302;-45
2022/11/11 07:31:24;;;;;;;;;7.75;7.00;;;;;12.21;61.09;102434.16;5079808;27;71051;-47
2022/11/11 07:33:49;;;;;;;;;9.25;9.25;;;;;12.23;61.08;102437.66;5081367;27;45557;-44
2022/11/11 07:36:14;;;;;;;;;9.75;9.00;;;;;12.23;60.98;102435.03;5080193;27;67900;-43
2022/11/11 07:38:39;;;;;;;;;14.25;8.50;;;;;12.13;60.93;102426.34;5072326;27;59545;-45
2022/11/11 07:41:05;;;;;;;;;13.50;10.75;;;;;12.08;61.27;102430.75;5089508;27;68527;-45
2022/11/11 07:43:30;;;;;;;;;13.50;9.50;;;;;12.05;61.67;102429.91;5072219;27;64131;-45
2022/11/11 07:45:56;;;;;;;;;9.75;9.25;;;;;12.01;61.76;102434.28;5078486;27;63915;-46
2022/11/11 07:48:21;;;;;;;;;11.25;8.50;;;;;12.03;61.28;102435.16;5080231;27;45426;-43
2022/11/11 07:50:46;;;;;;;;;13.75;10.00;;;;;12.05;61.42;102430.75;5067420;28;63457;-45
2022/11/11 07:53:11;;;;;;;;;11.25;8.25;;;;;12.09;61.53;102427.25;5070400;27;69866;-46
2022/11/11 07:55:37;;;;;;;;;9.00;6.75;;;;;12.13;61.63;102428.97;5068756;27;68012;-44
2022/11/11 07:58:02;;;;;;;;;7.25;6.25;;;;;12.15;61.57;102429.84;5080724;27;62778;-46
2022/11/11 08:00:28;;;;;;;;;9.00;8.00;;;;;12.19;61.45;102427.19;5076161;27;45314;-45
2022/11/11 08:02:53;;;;;;;;;9.75;6.25;;;;;12.24;61.56;102422.78;5071929;27;62528;-44
2022/11/11 08:05:18;;;;;;;;;7.50;7.25;;;;;12.28;61.42;102424.50;5070906;28;45556;-46
2022/11/11 08:07:44;;;;;;;;;5.75;3.75;;;;;12.31;61.36;102430.59;5080991;27;45490;-45
2022/11/11 08:10:10;;;;;;;;;8.25;7.75;;;;;12.33;61.03;102434.09;5075877;27;45284;-45
2022/11/11 08:15:19;;;;;;;;;10.75;7.50;;;;;12.43;60.94;102436.63;5077261;27;45393;-48
2022/11/11 08:17:45;;;;;;;;;15.25;8.75;;;;;12.46;61.32;102439.25;5080423;27;63403;-40
2022/11/11 08:20:11;;;;;;;;;9.25;7.25;;;;;12.52;61.28;102433.97;5060445;27;64554;-44
2022/11/11 08:22:40;;;;;;;;;9.75;7.00;;;;;12.56;61.43;102440.06;5073569;28;45893;-45
2022/11/11 08:25:08;;;;;;;;;10.00;7.50;;;;;12.59;60.80;102433.03;5065766;28;45436;-48
2022/11/11 08:27:33;;;;;;;;;11.75;8.75;;;;;12.60;60.76;102433.91;5076829;28;45472;-45
2022/11/11 08:29:59;;;;;;;;;10.25;9.75;;;;;12.57;60.69;102439.16;5077551;27;45311;-49
2022/11/11 08:32:24;;;;;;;;;13.00;11.50;;;;;12.57;61.19;102431.28;5076753;27;47217;-49
2022/11/11 08:34:50;;;;;;;;;13.75;10.25;;;;;12.59;61.09;102429.50;5078158;27;74445;-49
2022/11/11 08:37:15;;;;;;;;;10.75;9.00;;;;;12.63;60.94;102433.88;5076206;28;61082;-52
2022/11/11 08:39:40;;;;;;;;;11.00;9.50;;;;;12.65;61.05;102429.47;5068302;27;57347;-52
2022/11/11 08:42:06;;;;;;;;;14.75;11.50;;;;;12.68;60.80;102437.34;5080103;27;46249;-51
2022/11/11 08:44:31;;;;;;;;;10.00;9.00;;;;;12.71;60.53;102432.94;5072736;27;45411;-48
2022/11/11 08:46:56;;;;;;;;;12.50;9.00;;;;;12.73;60.76;102438.19;5090961;27;60576;-47
2022/11/11 08:49:22;;;;;;;;;10.50;9.75;;;;;12.67;60.46;102441.69;5069102;28;45527;-47
2022/11/11 08:51:47;;;;;;;;;13.75;9.00;;;;;12.66;61.04;102439.09;5070382;27;45348;-48
2022/11/11 08:54:13;;;;;;;;;12.75;11.00;;;;;12.66;61.00;102439.09;5076772;27;45264;-46
2022/11/11 08:56:39;;;;;;;;;12.25;10.50;;;;;12.71;60.79;102450.44;5073116;28;45418;-45
2022/11/11 08:59:04;;;;;;;;;10.00;9.00;;;;;12.73;60.79;102451.31;5077624;27;45517;-48
2022/11/11 09:01:30;;;;;;;;;12.00;8.00;;;;;12.70;61.00;102460.06;5062650;27;46302;-46
2022/11/11 09:03:55;;;;;;;;;11.00;9.00;;;;;12.73;61.02;102459.19;5073360;27;45438;-47
2022/11/11 09:06:21;;;;;;;;;12.75;8.50;;;;;12.76;60.74;102469.66;5070079;27;45966;-47
2022/11/11 09:08:46;;;;;;;;;13.25;9.00;;;;;12.80;60.67;102471.38;5073595;27;45323;-47
2022/11/11 09:11:11;;;;;;;;;13.25;10.00;;;;;12.85;60.71;102474.81;5074844;27;47128;-49
2022/11/11 09:13:37;;;;;;;;;14.25;9.25;;;;;12.90;60.77;102475.66;5075927;27;59583;-48
2022/11/11 09:16:02;;;;;;;;;11.75;9.50;;;;;12.93;60.40;102464.25;5073707;27;45340;-46
2022/11/11 09:18:30;;;;;;;;;8.00;8.00;;;;;12.96;60.22;102464.25;5077981;27;46696;-49
2022/11/11 09:20:57;;;;;;;;;13.00;10.75;;;;;12.99;59.99;102466.81;5073440;28;46221;-46
2022/11/11 09:23:23;;;;;;;;;12.00;8.50;;;;;13.03;60.66;102470.28;5074667;27;45420;-50
2022/11/11 09:25:48;;;;;;;;;10.00;9.00;;;;;13.06;60.02;102473.75;5070809;27;45463;-47
2022/11/11 09:28:14;;;;;;;;;11.00;7.50;;;;;13.10;60.00;102471.97;5076380;27;45264;-47
2022/11/11 09:30:39;;;;;;;;;11.00;9.00;;;;;13.15;60.29;102474.56;5065293;27;45673;-47
2022/11/11 09:33:05;;;;;;;;;10.75;9.25;;;;;13.19;60.01;102466.66;5081329;27;45200;-48
2022/11/11 09:35:30;;;;;;;;;17.25;12.50;;;;;13.22;59.69;102469.22;5070249;27;45697;-57
2022/11/11 09:37:57;;;;;;;;;10.25;8.75;;;;;13.27;59.83;102463.94;5070460;28;45450;-56
2022/11/11 09:40:25;;;;;;;;;14.50;10.75;;;;;13.30;59.94;102467.41;5072859;27;45980;-56
2022/11/11 09:43:22;;;;;;;;;10.75;9.75;;;;;13.36;59.80;102477.00;5080566;27;45477;-58
2022/11/11 09:46:05;;;;;;;;;11.00;11.00;;;;;13.40;59.50;102475.22;5074421;28;45242;-55
2022/11/11 09:48:33;;;;;;;;;11.00;10.25;;;;;13.42;59.42;102462.91;5063528;27;45305;-56
2022/11/11 09:51:02;;;;;;;;;12.50;8.25;;;;;13.44;59.72;102469.06;5078346;28;45268;-44
2022/11/11 09:53:32;;;;;;;;;14.25;9.50;;;;;13.46;59.19;102476.03;5063943;27;45416;-44
2022/11/11 09:56:00;;;;;;;;;13.75;10.75;;;;;13.45;59.10;102473.41;5074906;28;45679;-43
2022/11/11 09:58:32;;;;;;;;;16.75;10.75;;;;;13.46;59.02;102469.91;5068274;27;46520;-44
2022/11/11 10:01:04;;;;;;;;;18.75;11.75;;;;;13.52;59.06;102471.59;5081418;27;45384;-45
2022/11/11 10:03:30;;;;;;;;;11.25;11.00;;;;;13.54;59.56;102472.44;5077158;27;45461;-45
2022/11/11 10:06:03;;;;;;;;;11.75;9.50;;;;;13.58;59.46;102484.66;5080534;27;45268;-47
2022/11/11 10:08:32;;;;;;;;;12.50;10.00;;;;;13.59;59.10;102484.63;5081616;28;45505;-44
2022/11/11 10:10:59;;;;;;;;;14.00;12.50;;;;;13.56;59.12;102486.44;5071697;27;46796;-47
2022/11/11 10:13:33;;;;;;;;;14.25;12.75;;;;;13.50;59.43;102482.13;5076840;27;45464;-44
2022/11/11 10:16:43;;;;;;;;;18.00;14.75;;;;;13.38;59.41;102482.25;5075911;27;45505;-48
2022/11/11 10:19:32;;;;;;;;;15.00;13.75;;;;;13.22;59.12;102481.50;5070811;28;45500;-43
2022/11/11 10:22:12;;;;;;;;;16.75;13.00;;;;;13.10;59.71;102483.38;5075383;27;46255;-46
2022/11/11 10:24:40;;;;;;;;;20.25;14.50;;;;;13.06;59.36;102486.91;5064969;27;45551;-43
2022/11/11 10:27:19;;;;;;;;;13.75;13.00;;;;;13.04;59.60;102485.19;5069350;27;45603;-46
2022/11/11 10:29:44;;;;;;;;;16.75;14.50;;;;;13.04;59.42;102490.44;5081335;28;45304;-45
2022/11/11 10:32:27;;;;;;;;;16.75;14.50;;;;;13.02;60.13;102487.81;5079357;27;46210;-49
2022/11/11 10:34:53;;;;;;;;;14.00;11.50;;;;;13.06;59.84;102481.66;5082500;27;45991;-45
2022/11/11 10:37:22;;;;;;;;;15.00;13.25;;;;;13.06;60.10;102476.38;5082357;27;45268;-44
2022/11/11 10:39:47;;;;;;;;;12.75;12.00;;;;;13.11;59.82;102476.34;5080981;27;45589;-45
2022/11/11 10:42:16;;;;;;;;;11.00;10.00;;;;;13.15;59.38;102479.81;5081998;27;46143;-45
2022/11/11 10:44:41;;;;;;;;;11.00;11.00;;;;;13.19;59.67;102481.53;5082319;27;45809;-49
2022/11/11 10:47:38;;;;;;;;;12.75;8.75;;;;;13.23;59.66;102484.13;5078391;27;45446;-44
2022/11/11 10:50:10;;;;;;;;;11.50;10.00;;;;;13.28;59.40;102484.09;5078392;28;45477;-45
2022/11/11 10:52:41;;;;;;;;;13.00;10.50;;;;;13.25;58.94;102484.13;5080959;28;45321;-47
2022/11/11 10:55:18;;;;;;;;;10.50;10.50;;;;;13.26;59.40;102492.00;5080834;28;45421;-50
2022/11/11 10:57:51;;;;;;;;;14.75;11.50;;;;;13.30;59.04;102490.19;5082322;27;45329;-45
2022/11/11 11:00:16;;;;;;;;;12.75;9.75;;;;;13.34;59.07;102485.81;5081894;27;45382;-47
2022/11/11 11:02:49;;;;;;;;;13.25;10.50;;;;;13.34;59.01;102485.81;5079649;27;75806;-50
2022/11/11 11:05:21;;;;;;;;;15.50;10.50;;;;;13.34;58.72;102491.06;5080696;27;45433;-46
2022/11/11 11:07:50;;;;;;;;;14.25;12.75;;;;;13.34;58.94;102493.69;5106290;27;45514;-44
2022/11/11 11:10:20;;;;;;;;;14.75;13.50;;;;;13.27;58.77;102490.22;5080049;28;45478;-43
2022/11/11 11:12:51;;;;;;;;;17.50;14.25;;;;;13.20;58.72;102481.50;5063191;28;46967;-44
2022/11/11 11:15:20;;;;;;;;;12.75;10.00;;;;;13.17;59.13;102481.53;5081460;27;45312;-45
2022/11/11 11:18:05;;;;;;;;;16.50;13.50;;;;;13.14;59.03;102478.97;5079730;28;45426;-47
2022/11/11 11:20:31;;;;;;;;;14.50;12.25;;;;;13.19;59.22;102476.28;5080966;27;45371;-46
2022/11/11 11:22:58;;;;;;;;;13.75;12.75;;;;;13.24;58.82;102472.75;5071454;28;46469;-44
2022/11/11 11:25:26;;;;;;;;;13.50;12.50;;;;;13.23;58.92;102475.38;5080016;27;45944;-45
2022/11/11 11:28:04;;;;;;;;;15.25;11.25;;;;;13.20;59.24;102470.13;5081241;27;45531;-45
2022/11/11 11:30:29;;;;;;;;;14.00;13.00;;;;;13.19;58.74;102469.28;5079686;28;45334;-47
2022/11/11 11:33:06;;;;;;;;;19.00;12.50;;;;;13.20;58.81;102468.38;5080539;28;61519;-44
2022/11/11 11:35:42;;;;;;;;;16.00;10.25;;;;;13.22;59.21;102458.72;5067522;27;45786;-43
2022/11/11 11:38:09;;;;;;;;;17.00;13.00;;;;;13.27;59.19;102456.91;5082786;27;45178;-44
2022/11/11 11:40:50;;;;;;;;;17.75;13.75;;;;;13.29;58.99;102460.38;5068946;28;45274;-44
2022/11/11 11:43:32;;;;;;;;;14.75;12.50;;;;;13.35;58.79;102456.88;5076448;28;46417;-43
2022/11/11 11:45:59;;;;;;;;;18.25;16.00;;;;;13.43;59.15;102449.75;5074472;27;45746;-47
2022/11/11 11:48:37;;;;;;;;;17.75;13.00;;;;;13.45;58.49;102440.09;5080840;27;45366;-44
2022/11/11 11:51:32;;;;;;;;;14.00;12.00;;;;;13.49;58.78;102446.16;5079364;27;45516;-44
2022/11/11 11:54:12;;;;;;;;;13.00;12.50;;;;;13.58;58.59;102442.56;5080855;27;46290;-45
2022/11/11 11:56:44;;;;;;;;;15.00;12.50;;;;;13.64;58.30;102430.22;5078817;28;45452;-44
2022/11/11 11:59:39;;;;;;;;;13.75;13.50;;;;;13.70;58.14;102433.66;5078028;28;45260;-48
2022/11/11 12:02:39;;;;;;;;;18.75;14.00;;;;;13.77;58.09;102438.81;5079709;27;45255;-44
2022/11/11 12:05:07;;;;;;;;;14.25;13.00;;;;;13.84;58.06;102436.97;5071662;27;45442;-43
2022/11/11 12:07:49;;;;;;;;;17.50;14.25;;;;;13.88;58.11;102430.78;5080433;28;45215;-44
2022/11/11 12:10:15;;;;;;;;;16.25;14.50;;;;;13.93;57.98;102433.34;5074130;28;45454;-44
2022/11/11 12:12:50;;;;;;;;;15.00;12.33;;;;;13.92;57.72;102431.63;5066074;28;45336;-45
2022/11/11 12:15:26;;;;;;;;;16.00;13.75;;;;;13.92;57.52;102434.25;5072550;28;45437;-44
2022/11/11 12:18:19;;;;;;;;;20.00;17.00;;;;;13.91;57.90;102430.75;5087830;27;45666;-48
2022/11/11 12:20:49;;;;;;;;;16.00;13.75;;;;;13.90;57.87;102431.66;5077514;27;45413;-47
2022/11/11 12:23:43;;;;;;;;;16.00;14.50;;;;;13.89;57.67;102424.63;5073587;28;45691;-44
2022/11/11 12:26:38;;;;;;;;;16.75;15.00;;;;;13.90;57.58;102417.59;5077223;27;45394;-46
2022/11/11 12:29:41;;;;;;;;;14.75;13.25;;;;;13.91;58.02;102408.81;5064575;28;45932;-46
2022/11/11 12:32:41;;;;;;;;;14.75;13.50;;;;;13.93;57.95;102417.56;5069926;27;45399;-46
2022/11/11 12:35:12;;;;;;;;;18.00;14.25;;;;;13.96;57.91;102418.38;5103263;27;45467;-47
2022/11/11 12:37:56;;;;;;;;;14.25;14.00;;;;;13.98;57.53;102410.47;5068915;28;45458;-46